sensor_id;sensor_type;location;lat;lon;timestamp;P1;durP1;ratioP1;P2;durP2;ratioP2
72611;SDS011;60655;52.182;4.474;2023-05-07T00:01:45;41.13;;;23.23;;
72611;SDS011;60655;52.182;4.474;2023-05-07T00:03:45;35.85;;;21.77;;
72611;SDS011;60655;52.182;4.474;2023-05-07T00:05:46;37.42;;;22.58;;
72611;SDS011;60655;52.182;4.474;2023-05-07T00:07:48;38.05;;;22.52;;
72611;SDS011;60655;52.182;4.474;2023-05-07T00:09:49;37.45;;;22.05;;
72611;SDS011;60655;52.182;4.474;2023-05-07T00:11:50;33.03;;;19.73;;
72611;SDS011;60655;52.182;4.474;2023-05-07T00:13:51;36.00;;;19.13;;
72611;SDS011;60655;52.182;4.474;2023-05-07T00:15:52;34.30;;;20.92;;
72611;SDS011;60655;52.182;4.474;2023-05-07T00:17:53;34.38;;;18.70;;
72611;SDS011;60655;52.182;4.474;2023-05-07T00:19:54;34.10;;;19.38;;
72611;SDS011;60655;52.182;4.474;2023-05-07T00:21:55;39.08;;;20.80;;
72611;SDS011;60655;52.182;4.474;2023-05-07T00:23:56;35.83;;;22.58;;
72611;SDS011;60655;52.182;4.474;2023-05-07T00:25:57;31.55;;;19.45;;
72611;SDS011;60655;52.182;4.474;2023-05-07T00:27:58;36.50;;;20.30;;
72611;SDS011;60655;52.182;4.474;2023-05-07T00:30:04;36.25;;;20.38;;
72611;SDS011;60655;52.182;4.474;2023-05-07T00:32:05;34.40;;;18.10;;
72611;SDS011;60655;52.182;4.474;2023-05-07T00:34:06;36.38;;;21.67;;
72611;SDS011;60655;52.182;4.474;2023-05-07T00:36:07;34.42;;;20.70;;
72611;SDS011;60655;52.182;4.474;2023-05-07T00:38:08;39.53;;;23.35;;
72611;SDS011;60655;52.182;4.474;2023-05-07T00:40:09;35.30;;;20.25;;
72611;SDS011;60655;52.182;4.474;2023-05-07T00:42:10;38.05;;;21.48;;
72611;SDS011;60655;52.182;4.474;2023-05-07T00:44:11;36.75;;;23.35;;
72611;SDS011;60655;52.182;4.474;2023-05-07T00:46:13;38.92;;;23.20;;
72611;SDS011;60655;52.182;4.474;2023-05-07T00:48:14;36.70;;;20.70;;
72611;SDS011;60655;52.182;4.474;2023-05-07T00:50:16;41.63;;;21.30;;
72611;SDS011;60655;52.182;4.474;2023-05-07T00:52:17;39.53;;;21.95;;
72611;SDS011;60655;52.182;4.474;2023-05-07T00:54:22;45.72;;;25.02;;
72611;SDS011;60655;52.182;4.474;2023-05-07T00:56:23;35.42;;;20.48;;
72611;SDS011;60655;52.182;4.474;2023-05-07T00:58:24;34.90;;;18.13;;
72611;SDS011;60655;52.182;4.474;2023-05-07T01:00:25;37.28;;;19.15;;
72611;SDS011;60655;52.182;4.474;2023-05-07T01:02:26;39.35;;;22.40;;
72611;SDS011;60655;52.182;4.474;2023-05-07T01:04:27;40.08;;;22.23;;
72611;SDS011;60655;52.182;4.474;2023-05-07T01:06:28;44.78;;;24.90;;
72611;SDS011;60655;52.182;4.474;2023-05-07T01:08:31;43.50;;;25.58;;
72611;SDS011;60655;52.182;4.474;2023-05-07T01:10:33;41.08;;;21.52;;
72611;SDS011;60655;52.182;4.474;2023-05-07T01:12:34;41.20;;;23.40;;
72611;SDS011;60655;52.182;4.474;2023-05-07T01:14:37;46.30;;;23.48;;
72611;SDS011;60655;52.182;4.474;2023-05-07T01:16:38;38.65;;;22.95;;
72611;SDS011;60655;52.182;4.474;2023-05-07T01:18:39;45.40;;;24.05;;
72611;SDS011;60655;52.182;4.474;2023-05-07T01:20:40;47.92;;;27.48;;
72611;SDS011;60655;52.182;4.474;2023-05-07T01:22:42;47.65;;;24.00;;
72611;SDS011;60655;52.182;4.474;2023-05-07T01:24:44;45.10;;;26.27;;
72611;SDS011;60655;52.182;4.474;2023-05-07T01:26:45;44.00;;;23.55;;
72611;SDS011;60655;52.182;4.474;2023-05-07T01:28:46;47.50;;;24.88;;
72611;SDS011;60655;52.182;4.474;2023-05-07T01:30:48;52.85;;;27.88;;
72611;SDS011;60655;52.182;4.474;2023-05-07T01:33:01;45.88;;;24.65;;
72611;SDS011;60655;52.182;4.474;2023-05-07T01:35:05;46.15;;;24.77;;
72611;SDS011;60655;52.182;4.474;2023-05-07T01:37:08;48.72;;;24.30;;
72611;SDS011;60655;52.182;4.474;2023-05-07T01:39:09;41.95;;;22.55;;
72611;SDS011;60655;52.182;4.474;2023-05-07T01:41:11;49.20;;;24.48;;
72611;SDS011;60655;52.182;4.474;2023-05-07T01:43:13;51.10;;;27.17;;
72611;SDS011;60655;52.182;4.474;2023-05-07T01:45:14;43.78;;;22.73;;
72611;SDS011;60655;52.182;4.474;2023-05-07T01:47:15;47.45;;;24.95;;
72611;SDS011;60655;52.182;4.474;2023-05-07T01:49:17;47.45;;;26.48;;
72611;SDS011;60655;52.182;4.474;2023-05-07T01:51:18;46.35;;;22.67;;
72611;SDS011;60655;52.182;4.474;2023-05-07T01:53:20;41.45;;;20.95;;
72611;SDS011;60655;52.182;4.474;2023-05-07T01:55:21;43.28;;;24.63;;
72611;SDS011;60655;52.182;4.474;2023-05-07T01:57:22;47.58;;;25.55;;
72611;SDS011;60655;52.182;4.474;2023-05-07T01:59:23;52.17;;;26.40;;
72611;SDS011;60655;52.182;4.474;2023-05-07T02:01:24;44.80;;;25.05;;
72611;SDS011;60655;52.182;4.474;2023-05-07T02:03:25;47.13;;;23.27;;
72611;SDS011;60655;52.182;4.474;2023-05-07T02:05:26;44.63;;;23.60;;
72611;SDS011;60655;52.182;4.474;2023-05-07T02:07:27;49.47;;;26.05;;
72611;SDS011;60655;52.182;4.474;2023-05-07T02:09:28;46.08;;;22.42;;
72611;SDS011;60655;52.182;4.474;2023-05-07T02:11:29;43.47;;;22.73;;
72611;SDS011;60655;52.182;4.474;2023-05-07T02:13:31;46.38;;;25.83;;
72611;SDS011;60655;52.182;4.474;2023-05-07T02:15:33;42.97;;;23.70;;
72611;SDS011;60655;52.182;4.474;2023-05-07T02:17:34;44.83;;;23.48;;
72611;SDS011;60655;52.182;4.474;2023-05-07T02:19:36;47.25;;;24.95;;
72611;SDS011;60655;52.182;4.474;2023-05-07T02:21:37;40.90;;;20.88;;
72611;SDS011;60655;52.182;4.474;2023-05-07T02:23:38;46.03;;;25.20;;
72611;SDS011;60655;52.182;4.474;2023-05-07T02:25:38;45.30;;;22.40;;
72611;SDS011;60655;52.182;4.474;2023-05-07T02:27:39;45.05;;;23.00;;
72611;SDS011;60655;52.182;4.474;2023-05-07T02:29:40;43.88;;;23.42;;
72611;SDS011;60655;52.182;4.474;2023-05-07T02:31:41;40.42;;;23.27;;
72611;SDS011;60655;52.182;4.474;2023-05-07T02:33:42;43.60;;;22.55;;
72611;SDS011;60655;52.182;4.474;2023-05-07T02:35:43;38.38;;;21.27;;
72611;SDS011;60655;52.182;4.474;2023-05-07T02:37:44;35.50;;;19.55;;
72611;SDS011;60655;52.182;4.474;2023-05-07T02:39:45;37.53;;;20.23;;
72611;SDS011;60655;52.182;4.474;2023-05-07T02:41:46;39.63;;;21.13;;
72611;SDS011;60655;52.182;4.474;2023-05-07T02:43:47;41.67;;;24.13;;
72611;SDS011;60655;52.182;4.474;2023-05-07T02:45:48;43.38;;;23.25;;
72611;SDS011;60655;52.182;4.474;2023-05-07T02:47:49;36.35;;;20.63;;
72611;SDS011;60655;52.182;4.474;2023-05-07T02:49:50;38.35;;;21.50;;
72611;SDS011;60655;52.182;4.474;2023-05-07T02:51:51;35.88;;;19.88;;
72611;SDS011;60655;52.182;4.474;2023-05-07T02:53:51;34.30;;;18.98;;
72611;SDS011;60655;52.182;4.474;2023-05-07T02:55:53;35.60;;;22.00;;
72611;SDS011;60655;52.182;4.474;2023-05-07T02:57:54;37.78;;;22.65;;
72611;SDS011;60655;52.182;4.474;2023-05-07T02:59:55;40.25;;;20.77;;
72611;SDS011;60655;52.182;4.474;2023-05-07T03:01:58;36.08;;;19.95;;
72611;SDS011;60655;52.182;4.474;2023-05-07T03:03:59;36.55;;;21.38;;
72611;SDS011;60655;52.182;4.474;2023-05-07T03:06:00;33.45;;;19.75;;
72611;SDS011;60655;52.182;4.474;2023-05-07T03:08:01;32.22;;;17.17;;
72611;SDS011;60655;52.182;4.474;2023-05-07T03:10:02;32.28;;;20.25;;
72611;SDS011;60655;52.182;4.474;2023-05-07T03:12:04;38.05;;;21.10;;
72611;SDS011;60655;52.182;4.474;2023-05-07T03:14:05;35.08;;;19.40;;
72611;SDS011;60655;52.182;4.474;2023-05-07T03:16:06;34.13;;;20.52;;
72611;SDS011;60655;52.182;4.474;2023-05-07T03:18:07;39.03;;;23.52;;
72611;SDS011;60655;52.182;4.474;2023-05-07T03:20:08;36.97;;;20.70;;
72611;SDS011;60655;52.182;4.474;2023-05-07T03:22:10;36.83;;;20.05;;
72611;SDS011;60655;52.182;4.474;2023-05-07T03:24:11;33.45;;;21.08;;
72611;SDS011;60655;52.182;4.474;2023-05-07T03:26:11;32.38;;;18.15;;
72611;SDS011;60655;52.182;4.474;2023-05-07T03:28:12;34.88;;;19.50;;
72611;SDS011;60655;52.182;4.474;2023-05-07T03:30:13;32.42;;;19.15;;
72611;SDS011;60655;52.182;4.474;2023-05-07T03:32:15;39.10;;;21.85;;
72611;SDS011;60655;52.182;4.474;2023-05-07T03:34:15;35.53;;;20.38;;
72611;SDS011;60655;52.182;4.474;2023-05-07T03:36:22;34.70;;;21.58;;
72611;SDS011;60655;52.182;4.474;2023-05-07T03:38:23;29.42;;;18.88;;
72611;SDS011;60655;52.182;4.474;2023-05-07T03:40:24;32.83;;;18.85;;
72611;SDS011;60655;52.182;4.474;2023-05-07T03:42:25;32.55;;;18.88;;
72611;SDS011;60655;52.182;4.474;2023-05-07T03:44:26;33.88;;;20.08;;
72611;SDS011;60655;52.182;4.474;2023-05-07T03:46:27;32.97;;;19.00;;
72611;SDS011;60655;52.182;4.474;2023-05-07T03:48:28;29.98;;;18.40;;
72611;SDS011;60655;52.182;4.474;2023-05-07T03:50:29;25.25;;;16.75;;
72611;SDS011;60655;52.182;4.474;2023-05-07T03:52:30;32.95;;;19.55;;
72611;SDS011;60655;52.182;4.474;2023-05-07T03:54:31;29.67;;;19.30;;
72611;SDS011;60655;52.182;4.474;2023-05-07T03:56:32;28.60;;;18.00;;
72611;SDS011;60655;52.182;4.474;2023-05-07T03:58:33;28.77;;;18.02;;
72611;SDS011;60655;52.182;4.474;2023-05-07T04:00:35;31.38;;;17.80;;
72611;SDS011;60655;52.182;4.474;2023-05-07T04:02:38;31.63;;;19.40;;
72611;SDS011;60655;52.182;4.474;2023-05-07T04:04:39;28.85;;;17.73;;
72611;SDS011;60655;52.182;4.474;2023-05-07T04:06:40;33.10;;;19.70;;
72611;SDS011;60655;52.182;4.474;2023-05-07T04:08:41;30.38;;;17.63;;
72611;SDS011;60655;52.182;4.474;2023-05-07T04:10:42;24.10;;;15.05;;
72611;SDS011;60655;52.182;4.474;2023-05-07T04:12:43;27.60;;;17.35;;
72611;SDS011;60655;52.182;4.474;2023-05-07T04:14:44;29.92;;;17.73;;
72611;SDS011;60655;52.182;4.474;2023-05-07T04:16:45;27.17;;;16.02;;
72611;SDS011;60655;52.182;4.474;2023-05-07T04:18:46;30.73;;;17.92;;
72611;SDS011;60655;52.182;4.474;2023-05-07T04:20:48;29.25;;;17.70;;
72611;SDS011;60655;52.182;4.474;2023-05-07T04:22:50;27.15;;;17.10;;
72611;SDS011;60655;52.182;4.474;2023-05-07T04:24:51;25.15;;;15.90;;
72611;SDS011;60655;52.182;4.474;2023-05-07T04:26:51;28.38;;;17.08;;
72611;SDS011;60655;52.182;4.474;2023-05-07T04:28:53;24.38;;;14.50;;
72611;SDS011;60655;52.182;4.474;2023-05-07T04:30:54;26.45;;;16.92;;
72611;SDS011;60655;52.182;4.474;2023-05-07T04:32:55;31.25;;;18.33;;
72611;SDS011;60655;52.182;4.474;2023-05-07T04:34:56;28.65;;;17.35;;
72611;SDS011;60655;52.182;4.474;2023-05-07T04:36:58;33.78;;;20.30;;
72611;SDS011;60655;52.182;4.474;2023-05-07T04:39:00;27.17;;;17.35;;
72611;SDS011;60655;52.182;4.474;2023-05-07T04:41:04;30.20;;;18.75;;
72611;SDS011;60655;52.182;4.474;2023-05-07T04:43:06;29.17;;;17.08;;
72611;SDS011;60655;52.182;4.474;2023-05-07T04:45:09;28.70;;;17.95;;
72611;SDS011;60655;52.182;4.474;2023-05-07T04:47:11;29.63;;;17.83;;
72611;SDS011;60655;52.182;4.474;2023-05-07T04:49:12;29.45;;;19.50;;
72611;SDS011;60655;52.182;4.474;2023-05-07T04:51:13;28.98;;;18.23;;
72611;SDS011;60655;52.182;4.474;2023-05-07T04:53:14;29.45;;;18.25;;
72611;SDS011;60655;52.182;4.474;2023-05-07T04:55:15;29.60;;;19.00;;
72611;SDS011;60655;52.182;4.474;2023-05-07T04:57:16;29.77;;;17.70;;
72611;SDS011;60655;52.182;4.474;2023-05-07T04:59:18;26.70;;;16.85;;
72611;SDS011;60655;52.182;4.474;2023-05-07T05:01:19;26.23;;;17.92;;
72611;SDS011;60655;52.182;4.474;2023-05-07T05:03:20;28.77;;;17.60;;
72611;SDS011;60655;52.182;4.474;2023-05-07T05:05:21;29.52;;;17.27;;
72611;SDS011;60655;52.182;4.474;2023-05-07T05:07:22;27.35;;;18.08;;
72611;SDS011;60655;52.182;4.474;2023-05-07T05:09:23;25.58;;;16.10;;
72611;SDS011;60655;52.182;4.474;2023-05-07T05:11:23;29.13;;;19.33;;
72611;SDS011;60655;52.182;4.474;2023-05-07T05:13:24;30.75;;;17.52;;
72611;SDS011;60655;52.182;4.474;2023-05-07T05:15:25;26.92;;;16.02;;
72611;SDS011;60655;52.182;4.474;2023-05-07T05:17:26;28.75;;;16.85;;
72611;SDS011;60655;52.182;4.474;2023-05-07T05:19:27;25.52;;;16.52;;
72611;SDS011;60655;52.182;4.474;2023-05-07T05:21:29;24.42;;;14.88;;
72611;SDS011;60655;52.182;4.474;2023-05-07T05:23:30;21.85;;;14.73;;
72611;SDS011;60655;52.182;4.474;2023-05-07T05:25:31;24.38;;;16.27;;
72611;SDS011;60655;52.182;4.474;2023-05-07T05:27:32;27.25;;;17.55;;
72611;SDS011;60655;52.182;4.474;2023-05-07T05:29:33;25.00;;;15.93;;
72611;SDS011;60655;52.182;4.474;2023-05-07T05:31:34;23.48;;;15.40;;
72611;SDS011;60655;52.182;4.474;2023-05-07T05:33:35;26.15;;;16.30;;
72611;SDS011;60655;52.182;4.474;2023-05-07T05:35:36;22.08;;;13.90;;
72611;SDS011;60655;52.182;4.474;2023-05-07T05:37:37;26.40;;;15.82;;
72611;SDS011;60655;52.182;4.474;2023-05-07T05:39:38;23.20;;;14.45;;
72611;SDS011;60655;52.182;4.474;2023-05-07T05:41:39;25.13;;;15.35;;
72611;SDS011;60655;52.182;4.474;2023-05-07T05:43:39;26.50;;;16.75;;
72611;SDS011;60655;52.182;4.474;2023-05-07T05:45:40;23.52;;;15.38;;
72611;SDS011;60655;52.182;4.474;2023-05-07T05:47:41;21.48;;;14.15;;
72611;SDS011;60655;52.182;4.474;2023-05-07T05:49:42;26.08;;;16.52;;
72611;SDS011;60655;52.182;4.474;2023-05-07T05:51:43;24.35;;;14.35;;
72611;SDS011;60655;52.182;4.474;2023-05-07T05:53:45;22.33;;;14.15;;
72611;SDS011;60655;52.182;4.474;2023-05-07T05:55:46;23.92;;;14.73;;
72611;SDS011;60655;52.182;4.474;2023-05-07T05:57:47;23.45;;;13.00;;
72611;SDS011;60655;52.182;4.474;2023-05-07T05:59:48;21.50;;;14.55;;
72611;SDS011;60655;52.182;4.474;2023-05-07T06:01:49;23.38;;;14.93;;
72611;SDS011;60655;52.182;4.474;2023-05-07T06:03:51;22.95;;;14.63;;
72611;SDS011;60655;52.182;4.474;2023-05-07T06:05:52;24.92;;;14.93;;
72611;SDS011;60655;52.182;4.474;2023-05-07T06:07:53;22.25;;;13.93;;
72611;SDS011;60655;52.182;4.474;2023-05-07T06:09:54;22.60;;;14.50;;
72611;SDS011;60655;52.182;4.474;2023-05-07T06:11:55;28.35;;;15.65;;
72611;SDS011;60655;52.182;4.474;2023-05-07T06:13:56;23.33;;;14.00;;
72611;SDS011;60655;52.182;4.474;2023-05-07T06:15:57;22.27;;;13.13;;
72611;SDS011;60655;52.182;4.474;2023-05-07T06:17:58;22.85;;;15.10;;
72611;SDS011;60655;52.182;4.474;2023-05-07T06:19:59;23.27;;;15.05;;
72611;SDS011;60655;52.182;4.474;2023-05-07T06:22:01;27.77;;;16.38;;
72611;SDS011;60655;52.182;4.474;2023-05-07T06:24:03;21.17;;;13.52;;
72611;SDS011;60655;52.182;4.474;2023-05-07T06:26:04;26.50;;;17.52;;
72611;SDS011;60655;52.182;4.474;2023-05-07T06:28:07;24.98;;;14.38;;
72611;SDS011;60655;52.182;4.474;2023-05-07T06:30:12;25.38;;;15.32;;
72611;SDS011;60655;52.182;4.474;2023-05-07T06:32:13;24.80;;;15.98;;
72611;SDS011;60655;52.182;4.474;2023-05-07T06:34:14;19.45;;;12.30;;
72611;SDS011;60655;52.182;4.474;2023-05-07T06:36:15;25.98;;;15.45;;
72611;SDS011;60655;52.182;4.474;2023-05-07T06:38:16;25.30;;;16.55;;
72611;SDS011;60655;52.182;4.474;2023-05-07T06:40:17;28.90;;;17.05;;
72611;SDS011;60655;52.182;4.474;2023-05-07T06:42:19;25.48;;;13.25;;
72611;SDS011;60655;52.182;4.474;2023-05-07T06:44:20;25.70;;;15.40;;
72611;SDS011;60655;52.182;4.474;2023-05-07T06:46:21;26.95;;;18.40;;
72611;SDS011;60655;52.182;4.474;2023-05-07T06:48:22;29.27;;;17.15;;
72611;SDS011;60655;52.182;4.474;2023-05-07T06:50:23;22.55;;;13.07;;
72611;SDS011;60655;52.182;4.474;2023-05-07T06:52:24;28.27;;;18.63;;
72611;SDS011;60655;52.182;4.474;2023-05-07T06:54:25;29.90;;;19.95;;
72611;SDS011;60655;52.182;4.474;2023-05-07T06:56:26;33.00;;;18.98;;
72611;SDS011;60655;52.182;4.474;2023-05-07T06:58:27;28.95;;;18.83;;
72611;SDS011;60655;52.182;4.474;2023-05-07T07:00:28;31.08;;;19.63;;
72611;SDS011;60655;52.182;4.474;2023-05-07T07:02:29;27.08;;;17.02;;
72611;SDS011;60655;52.182;4.474;2023-05-07T07:04:30;29.48;;;18.27;;
72611;SDS011;60655;52.182;4.474;2023-05-07T07:06:31;31.52;;;18.35;;
72611;SDS011;60655;52.182;4.474;2023-05-07T07:08:32;28.20;;;16.67;;
72611;SDS011;60655;52.182;4.474;2023-05-07T07:10:33;28.98;;;18.00;;
72611;SDS011;60655;52.182;4.474;2023-05-07T07:12:34;29.20;;;17.98;;
72611;SDS011;60655;52.182;4.474;2023-05-07T07:14:35;34.28;;;21.48;;
72611;SDS011;60655;52.182;4.474;2023-05-07T07:16:36;29.98;;;19.75;;
72611;SDS011;60655;52.182;4.474;2023-05-07T07:18:37;29.65;;;18.92;;
72611;SDS011;60655;52.182;4.474;2023-05-07T07:20:38;29.08;;;19.20;;
72611;SDS011;60655;52.182;4.474;2023-05-07T07:22:39;30.33;;;19.13;;
72611;SDS011;60655;52.182;4.474;2023-05-07T07:24:40;27.67;;;17.75;;
72611;SDS011;60655;52.182;4.474;2023-05-07T07:26:41;39.30;;;24.27;;
72611;SDS011;60655;52.182;4.474;2023-05-07T07:28:45;29.08;;;17.98;;
72611;SDS011;60655;52.182;4.474;2023-05-07T07:30:47;34.63;;;20.08;;
72611;SDS011;60655;52.182;4.474;2023-05-07T07:32:51;28.55;;;17.23;;
72611;SDS011;60655;52.182;4.474;2023-05-07T07:34:53;27.30;;;17.83;;
72611;SDS011;60655;52.182;4.474;2023-05-07T07:36:54;22.20;;;16.35;;
72611;SDS011;60655;52.182;4.474;2023-05-07T07:38:55;25.50;;;16.80;;
72611;SDS011;60655;52.182;4.474;2023-05-07T07:40:56;24.90;;;16.35;;
72611;SDS011;60655;52.182;4.474;2023-05-07T07:42:57;24.48;;;16.92;;
72611;SDS011;60655;52.182;4.474;2023-05-07T07:44:58;28.95;;;17.20;;
72611;SDS011;60655;52.182;4.474;2023-05-07T07:46:59;27.02;;;16.50;;
72611;SDS011;60655;52.182;4.474;2023-05-07T07:49:00;28.98;;;19.73;;
72611;SDS011;60655;52.182;4.474;2023-05-07T07:51:01;28.80;;;18.50;;
72611;SDS011;60655;52.182;4.474;2023-05-07T07:53:02;30.27;;;18.48;;
72611;SDS011;60655;52.182;4.474;2023-05-07T07:55:03;26.33;;;16.42;;
72611;SDS011;60655;52.182;4.474;2023-05-07T07:57:05;26.33;;;17.02;;
72611;SDS011;60655;52.182;4.474;2023-05-07T07:59:06;22.67;;;14.57;;
72611;SDS011;60655;52.182;4.474;2023-05-07T08:01:07;24.42;;;15.65;;
72611;SDS011;60655;52.182;4.474;2023-05-07T08:03:11;22.55;;;12.85;;
72611;SDS011;60655;52.182;4.474;2023-05-07T08:05:12;26.58;;;14.93;;
72611;SDS011;60655;52.182;4.474;2023-05-07T08:07:13;23.38;;;14.95;;
72611;SDS011;60655;52.182;4.474;2023-05-07T08:09:14;23.92;;;14.90;;
72611;SDS011;60655;52.182;4.474;2023-05-07T08:11:15;24.27;;;14.45;;
72611;SDS011;60655;52.182;4.474;2023-05-07T08:13:17;24.33;;;13.88;;
72611;SDS011;60655;52.182;4.474;2023-05-07T08:15:18;23.98;;;14.80;;
72611;SDS011;60655;52.182;4.474;2023-05-07T08:17:19;20.48;;;13.13;;
72611;SDS011;60655;52.182;4.474;2023-05-07T08:19:22;17.23;;;9.02;;
72611;SDS011;60655;52.182;4.474;2023-05-07T08:21:23;14.00;;;8.38;;
72611;SDS011;60655;52.182;4.474;2023-05-07T08:23:24;14.45;;;9.05;;
72611;SDS011;60655;52.182;4.474;2023-05-07T08:25:25;16.42;;;7.90;;
72611;SDS011;60655;52.182;4.474;2023-05-07T08:27:26;16.58;;;8.65;;
72611;SDS011;60655;52.182;4.474;2023-05-07T08:29:27;14.32;;;8.25;;
72611;SDS011;60655;52.182;4.474;2023-05-07T08:31:28;18.25;;;9.30;;
72611;SDS011;60655;52.182;4.474;2023-05-07T08:33:29;14.40;;;8.93;;
72611;SDS011;60655;52.182;4.474;2023-05-07T08:35:30;17.70;;;9.40;;
72611;SDS011;60655;52.182;4.474;2023-05-07T08:37:31;15.75;;;8.30;;
72611;SDS011;60655;52.182;4.474;2023-05-07T08:39:32;15.60;;;7.60;;
72611;SDS011;60655;52.182;4.474;2023-05-07T08:41:33;14.70;;;8.45;;
72611;SDS011;60655;52.182;4.474;2023-05-07T08:43:35;14.40;;;7.78;;
72611;SDS011;60655;52.182;4.474;2023-05-07T08:45:37;15.05;;;8.80;;
72611;SDS011;60655;52.182;4.474;2023-05-07T08:47:42;16.77;;;9.38;;
72611;SDS011;60655;52.182;4.474;2023-05-07T08:49:47;14.77;;;7.93;;
72611;SDS011;60655;52.182;4.474;2023-05-07T08:51:50;12.43;;;7.80;;
72611;SDS011;60655;52.182;4.474;2023-05-07T08:53:51;15.85;;;7.90;;
72611;SDS011;60655;52.182;4.474;2023-05-07T08:55:52;13.60;;;7.85;;
72611;SDS011;60655;52.182;4.474;2023-05-07T08:57:53;12.57;;;6.47;;
72611;SDS011;60655;52.182;4.474;2023-05-07T08:59:55;14.52;;;7.85;;
72611;SDS011;60655;52.182;4.474;2023-05-07T09:01:56;12.93;;;7.30;;
72611;SDS011;60655;52.182;4.474;2023-05-07T09:03:57;13.35;;;6.53;;
72611;SDS011;60655;52.182;4.474;2023-05-07T09:05:58;12.10;;;6.20;;
72611;SDS011;60655;52.182;4.474;2023-05-07T09:07:59;13.50;;;6.13;;
72611;SDS011;60655;52.182;4.474;2023-05-07T09:10:06;12.93;;;5.97;;
72611;SDS011;60655;52.182;4.474;2023-05-07T09:12:13;11.70;;;4.35;;
72611;SDS011;60655;52.182;4.474;2023-05-07T09:14:15;10.15;;;5.22;;
72611;SDS011;60655;52.182;4.474;2023-05-07T09:16:15;14.82;;;6.15;;
72611;SDS011;60655;52.182;4.474;2023-05-07T09:18:16;12.68;;;5.53;;
72611;SDS011;60655;52.182;4.474;2023-05-07T09:20:18;11.13;;;6.28;;
72611;SDS011;60655;52.182;4.474;2023-05-07T09:22:19;14.77;;;6.93;;
72611;SDS011;60655;52.182;4.474;2023-05-07T09:24:20;11.90;;;5.90;;
72611;SDS011;60655;52.182;4.474;2023-05-07T09:26:22;12.77;;;5.88;;
72611;SDS011;60655;52.182;4.474;2023-05-07T09:28:23;12.95;;;6.45;;
72611;SDS011;60655;52.182;4.474;2023-05-07T09:30:30;12.07;;;6.20;;
72611;SDS011;60655;52.182;4.474;2023-05-07T09:32:35;12.95;;;5.82;;
72611;SDS011;60655;52.182;4.474;2023-05-07T09:34:38;12.40;;;6.68;;
72611;SDS011;60655;52.182;4.474;2023-05-07T09:36:39;11.95;;;7.03;;
72611;SDS011;60655;52.182;4.474;2023-05-07T09:38:40;12.80;;;6.50;;
72611;SDS011;60655;52.182;4.474;2023-05-07T09:40:42;15.38;;;7.80;;
72611;SDS011;60655;52.182;4.474;2023-05-07T09:42:43;19.88;;;7.50;;
72611;SDS011;60655;52.182;4.474;2023-05-07T09:44:44;13.82;;;6.75;;
72611;SDS011;60655;52.182;4.474;2023-05-07T09:46:45;11.77;;;5.10;;
72611;SDS011;60655;52.182;4.474;2023-05-07T09:50:55;10.85;;;5.60;;
72611;SDS011;60655;52.182;4.474;2023-05-07T09:52:59;11.88;;;5.63;;
72611;SDS011;60655;52.182;4.474;2023-05-07T09:55:00;13.80;;;4.78;;
72611;SDS011;60655;52.182;4.474;2023-05-07T09:57:02;8.00;;;3.78;;
72611;SDS011;60655;52.182;4.474;2023-05-07T09:59:04;10.95;;;4.40;;
72611;SDS011;60655;52.182;4.474;2023-05-07T10:01:07;11.68;;;4.30;;
72611;SDS011;60655;52.182;4.474;2023-05-07T10:03:09;11.75;;;4.65;;
72611;SDS011;60655;52.182;4.474;2023-05-07T10:05:12;13.43;;;6.25;;
72611;SDS011;60655;52.182;4.474;2023-05-07T10:07:14;13.38;;;5.00;;
72611;SDS011;60655;52.182;4.474;2023-05-07T10:09:16;11.13;;;5.10;;
72611;SDS011;60655;52.182;4.474;2023-05-07T10:11:18;15.93;;;5.20;;
72611;SDS011;60655;52.182;4.474;2023-05-07T10:13:20;12.43;;;5.35;;
72611;SDS011;60655;52.182;4.474;2023-05-07T10:15:21;13.90;;;7.18;;
72611;SDS011;60655;52.182;4.474;2023-05-07T10:17:23;12.10;;;6.50;;
72611;SDS011;60655;52.182;4.474;2023-05-07T10:19:24;13.80;;;6.35;;
72611;SDS011;60655;52.182;4.474;2023-05-07T10:21:26;12.57;;;6.95;;
72611;SDS011;60655;52.182;4.474;2023-05-07T10:23:30;21.58;;;12.52;;
72611;SDS011;60655;52.182;4.474;2023-05-07T10:25:32;15.23;;;9.10;;
72611;SDS011;60655;52.182;4.474;2023-05-07T10:27:33;14.85;;;9.85;;
72611;SDS011;60655;52.182;4.474;2023-05-07T10:29:42;15.55;;;7.70;;
72611;SDS011;60655;52.182;4.474;2023-05-07T10:32:53;14.32;;;6.90;;
72611;SDS011;60655;52.182;4.474;2023-05-07T10:34:43;13.60;;;6.78;;
72611;SDS011;60655;52.182;4.474;2023-05-07T10:36:47;14.70;;;6.65;;
72611;SDS011;60655;52.182;4.474;2023-05-07T10:38:50;12.52;;;6.10;;
72611;SDS011;60655;52.182;4.474;2023-05-07T10:40:51;12.30;;;5.70;;
72611;SDS011;60655;52.182;4.474;2023-05-07T10:42:53;12.73;;;6.28;;
72611;SDS011;60655;52.182;4.474;2023-05-07T10:45:11;10.15;;;5.40;;
72611;SDS011;60655;52.182;4.474;2023-05-07T10:47:14;13.18;;;6.25;;
72611;SDS011;60655;52.182;4.474;2023-05-07T10:49:18;13.20;;;6.65;;
72611;SDS011;60655;52.182;4.474;2023-05-07T10:51:20;11.80;;;6.07;;
72611;SDS011;60655;52.182;4.474;2023-05-07T10:53:23;11.48;;;5.68;;
72611;SDS011;60655;52.182;4.474;2023-05-07T10:55:28;13.07;;;6.03;;
72611;SDS011;60655;52.182;4.474;2023-05-07T10:59:31;11.07;;;5.72;;
72611;SDS011;60655;52.182;4.474;2023-05-07T11:01:50;13.60;;;6.72;;
72611;SDS011;60655;52.182;4.474;2023-05-07T11:04:12;11.95;;;5.72;;
72611;SDS011;60655;52.182;4.474;2023-05-07T11:06:15;12.80;;;6.80;;
72611;SDS011;60655;52.182;4.474;2023-05-07T11:08:16;9.93;;;6.00;;
72611;SDS011;60655;52.182;4.474;2023-05-07T11:10:17;12.50;;;6.00;;
72611;SDS011;60655;52.182;4.474;2023-05-07T11:16:41;12.63;;;5.60;;
72611;SDS011;60655;52.182;4.474;2023-05-07T11:18:56;10.77;;;6.10;;
72611;SDS011;60655;52.182;4.474;2023-05-07T11:20:57;12.57;;;6.00;;
72611;SDS011;60655;52.182;4.474;2023-05-07T11:23:00;10.27;;;5.60;;
72611;SDS011;60655;52.182;4.474;2023-05-07T11:25:01;9.23;;;4.35;;
72611;SDS011;60655;52.182;4.474;2023-05-07T11:27:03;10.63;;;4.72;;
72611;SDS011;60655;52.182;4.474;2023-05-07T11:29:05;13.77;;;5.85;;
72611;SDS011;60655;52.182;4.474;2023-05-07T11:31:11;13.57;;;5.85;;
72611;SDS011;60655;52.182;4.474;2023-05-07T11:33:12;8.48;;;4.78;;
72611;SDS011;60655;52.182;4.474;2023-05-07T11:35:17;11.52;;;4.60;;
72611;SDS011;60655;52.182;4.474;2023-05-07T11:37:23;12.60;;;5.05;;
72611;SDS011;60655;52.182;4.474;2023-05-07T11:39:29;11.65;;;5.65;;
72611;SDS011;60655;52.182;4.474;2023-05-07T11:41:36;10.40;;;4.72;;
72611;SDS011;60655;52.182;4.474;2023-05-07T11:43:37;10.60;;;5.75;;
72611;SDS011;60655;52.182;4.474;2023-05-07T11:45:40;11.73;;;6.20;;
72611;SDS011;60655;52.182;4.474;2023-05-07T11:47:41;14.05;;;6.53;;
72611;SDS011;60655;52.182;4.474;2023-05-07T11:49:42;13.63;;;6.60;;
72611;SDS011;60655;52.182;4.474;2023-05-07T11:51:44;16.67;;;8.52;;
72611;SDS011;60655;52.182;4.474;2023-05-07T11:53:47;18.13;;;10.65;;
72611;SDS011;60655;52.182;4.474;2023-05-07T11:55:51;16.52;;;10.27;;
72611;SDS011;60655;52.182;4.474;2023-05-07T11:57:53;21.10;;;11.63;;
72611;SDS011;60655;52.182;4.474;2023-05-07T11:59:54;20.20;;;10.20;;
72611;SDS011;60655;52.182;4.474;2023-05-07T12:01:59;18.52;;;10.45;;
72611;SDS011;60655;52.182;4.474;2023-05-07T12:04:00;17.33;;;9.77;;
72611;SDS011;60655;52.182;4.474;2023-05-07T12:06:06;19.40;;;10.93;;